createdAt,value
2018-08-19T00:01:34.915Z,95.00
2018-08-19T00:07:04.411Z,96.50
2018-08-19T00:16:28.609Z,95.60
2018-08-19T00:22:34.777Z,95.90
2018-08-19T02:00:15.670Z,96.30
2018-08-19T02:02:56.432Z,99.90
2018-08-19T02:05:24.409Z,99.90
2018-08-19T02:07:52.881Z,99.90
2018-08-19T02:10:20.486Z,99.90
2018-08-19T02:12:49.604Z,99.90
2018-08-19T02:15:17.049Z,99.90
2018-08-19T02:17:50.025Z,99.90
2018-08-19T02:20:17.490Z,99.90
2018-08-19T02:22:56.029Z,99.90
2018-08-19T02:25:23.511Z,99.90
2018-08-19T02:27:50.957Z,99.90
2018-08-19T02:30:18.411Z,99.90
2018-08-19T02:32:45.862Z,99.90
2018-08-19T02:35:13.297Z,99.90
2018-08-19T02:37:40.785Z,99.90
2018-08-19T02:40:11.101Z,99.90
2018-08-19T02:42:38.570Z,99.90
2018-08-19T02:45:07.075Z,99.90
2018-08-19T02:47:35.021Z,99.90
2018-08-19T02:50:02.553Z,99.90
2018-08-19T02:52:31.137Z,99.90
2018-08-19T02:55:00.795Z,99.90
2018-08-19T02:57:30.282Z,99.90
2018-08-19T02:59:58.681Z,99.90
2018-08-19T03:02:27.733Z,99.90
2018-08-19T03:04:56.050Z,99.90
2018-08-19T03:07:24.910Z,99.90
2018-08-19T03:09:59.818Z,99.90
2018-08-19T03:12:27.285Z,99.90
2018-08-19T03:14:55.408Z,99.90
2018-08-19T03:17:23.357Z,99.90
2018-08-19T03:19:51.325Z,99.90
2018-08-19T03:22:18.828Z,99.90
2018-08-19T03:24:46.310Z,99.90
2018-08-19T03:27:13.985Z,99.90
2018-08-19T03:29:47.070Z,99.90
2018-08-19T03:32:14.534Z,99.90
2018-08-19T03:34:41.987Z,99.90
2018-08-19T03:37:09.437Z,99.90
2018-08-19T03:39:36.889Z,99.90
2018-08-19T03:42:04.372Z,99.90
2018-08-19T03:44:31.809Z,99.90
2018-08-19T03:47:00.014Z,99.90
2018-08-19T03:49:27.458Z,99.90
2018-08-19T03:51:54.941Z,99.90
2018-08-19T03:54:22.443Z,99.90
2018-08-19T03:56:49.897Z,99.90
2018-08-19T03:59:17.341Z,99.90
2018-08-19T04:01:45.799Z,99.90
2018-08-19T04:04:14.881Z,99.90
2018-08-19T04:06:42.509Z,99.90
2018-08-19T04:09:09.961Z,99.90
2018-08-19T04:11:37.429Z,99.90
2018-08-19T04:14:10.249Z,99.90
2018-08-19T04:16:37.686Z,99.90
2018-08-19T04:19:07.923Z,99.90
2018-08-19T04:21:35.364Z,99.90
2018-08-19T04:24:02.813Z,99.90
2018-08-19T04:26:30.723Z,99.90
2018-08-19T04:28:58.157Z,99.90
2018-08-19T04:31:25.616Z,99.90
2018-08-19T04:33:53.493Z,99.90
2018-08-19T04:36:22.070Z,99.90
2018-08-19T04:38:49.561Z,99.90
2018-08-19T04:41:17.138Z,99.90
2018-08-19T04:43:45.261Z,99.90
2018-08-19T04:46:12.698Z,99.90
2018-08-19T04:48:40.155Z,99.90
2018-08-19T04:51:07.785Z,99.90
2018-08-19T04:53:35.443Z,99.90
2018-08-19T04:56:02.906Z,99.90
2018-08-19T04:58:30.502Z,99.90
2018-08-19T05:00:57.932Z,99.90
2018-08-19T05:03:25.379Z,99.90
2018-08-19T05:05:52.961Z,99.90
2018-08-19T05:08:20.535Z,99.90
2018-08-19T05:10:47.848Z,99.90
2018-08-19T05:13:15.279Z,99.90
2018-08-19T05:15:43.128Z,99.90
2018-08-19T05:18:10.638Z,99.90
2018-08-19T05:20:38.338Z,99.90
2018-08-19T05:23:06.137Z,99.90
2018-08-19T05:25:37.520Z,99.90
2018-08-19T05:28:05.934Z,99.90
2018-08-19T05:30:34.309Z,99.90
2018-08-19T05:33:03.845Z,99.90
2018-08-19T05:35:32.311Z,99.90
2018-08-19T05:38:00.880Z,99.90
2018-08-19T05:40:28.319Z,99.90
2018-08-19T05:42:55.871Z,99.90
2018-08-19T05:45:23.337Z,99.90
2018-08-19T05:47:56.625Z,99.90
2018-08-19T05:50:24.142Z,99.90
2018-08-19T05:52:51.585Z,99.90
2018-08-19T05:55:19.103Z,99.90
2018-08-19T05:57:46.542Z,99.90
2018-08-19T06:00:19.460Z,99.90
2018-08-19T06:02:46.980Z,99.90
2018-08-19T06:05:14.567Z,99.90
2018-08-19T06:07:42.156Z,99.90
2018-08-19T06:10:09.474Z,99.90
2018-08-19T06:12:37.009Z,99.90
2018-08-19T06:15:04.786Z,99.90
2018-08-19T06:17:32.327Z,99.90
2018-08-19T06:19:59.774Z,99.90
2018-08-19T06:22:31.544Z,99.90
2018-08-19T06:24:59.085Z,99.90
2018-08-19T06:27:30.830Z,99.90
2018-08-19T06:29:58.440Z,99.90
2018-08-19T06:32:30.463Z,99.90
2018-08-19T06:34:57.995Z,99.90
2018-08-19T06:37:25.345Z,99.90
2018-08-19T06:39:52.937Z,99.30
2018-08-19T06:42:21.202Z,98.60
2018-08-19T06:44:48.733Z,99.10
2018-08-19T06:47:16.186Z,98.50
2018-08-19T06:49:49.234Z,97.20
2018-08-19T06:52:17.232Z,95.40
2018-08-19T06:54:44.514Z,94.80
2018-08-19T06:57:12.028Z,94.40
2018-08-19T06:59:39.597Z,93.30
2018-08-19T07:02:07.822Z,91.60
2018-08-19T07:04:43.845Z,91.70
2018-08-19T07:07:13.637Z,91.50
2018-08-19T07:09:41.353Z,90.90
2018-08-19T07:12:10.633Z,90.40
2018-08-19T07:14:38.097Z,89.70
2018-08-19T07:17:05.958Z,87.70
2018-08-19T07:19:34.286Z,87.20
2018-08-19T07:22:04.276Z,87.10
2018-08-19T07:24:34.187Z,85.00
2018-08-19T07:27:01.874Z,85.20
2018-08-19T07:29:30.168Z,82.50
2018-08-19T07:31:58.994Z,79.50
2018-08-19T07:34:26.547Z,79.00
2018-08-19T07:36:56.009Z,76.80
2018-08-19T07:39:24.874Z,75.70
2018-08-19T07:41:52.390Z,74.70
2018-08-19T07:44:19.833Z,73.40
2018-08-19T07:46:47.285Z,72.20
2018-08-19T07:49:14.725Z,71.50
2018-08-19T07:51:42.374Z,72.20
2018-08-19T07:54:09.758Z,71.80
2018-08-19T07:56:37.586Z,70.20
2018-08-19T07:59:06.304Z,69.40
2018-08-19T08:01:34.355Z,70.10
2018-08-19T08:04:01.802Z,70.30
2018-08-19T08:06:29.595Z,72.30
2018-08-19T08:08:58.554Z,71.30
2018-08-19T08:11:26.073Z,72.30
2018-08-19T08:13:53.584Z,71.20
2018-08-19T08:16:22.133Z,68.20
2018-08-19T08:18:49.573Z,65.60
2018-08-19T08:21:17.064Z,65.50
2018-08-19T08:23:44.628Z,62.60
2018-08-19T08:26:12.085Z,62.70
2018-08-19T08:28:39.525Z,62.90
2018-08-19T08:31:07.394Z,62.90
2018-08-19T08:33:35.949Z,64.00
2018-08-19T08:36:03.389Z,62.00
2018-08-19T08:38:30.955Z,63.30
2018-08-19T08:40:58.519Z,62.00
2018-08-19T08:43:25.956Z,63.20
2018-08-19T08:45:54.502Z,63.00
2018-08-19T08:48:21.941Z,63.00
2018-08-19T08:50:49.423Z,58.10
2018-08-19T08:53:16.936Z,56.60
2018-08-19T08:55:44.309Z,57.60
2018-08-19T08:58:15.857Z,56.70
2018-08-19T09:00:43.326Z,60.20
2018-08-19T09:03:10.892Z,55.40
2018-08-19T09:05:38.272Z,60.00
2018-08-19T09:08:06.931Z,61.10
2018-08-19T09:10:34.370Z,58.40
2018-08-19T09:13:04.355Z,55.70
2018-08-19T09:15:31.926Z,55.60
2018-08-19T09:17:59.497Z,56.20
2018-08-19T09:20:26.947Z,58.20
2018-08-19T09:22:54.454Z,56.80
2018-08-19T09:25:21.900Z,53.90
2018-08-19T09:27:53.324Z,53.80
2018-08-19T09:30:25.742Z,54.40
2018-08-19T09:32:57.589Z,52.90
2018-08-19T09:35:26.072Z,52.60
2018-08-19T09:37:58.179Z,54.10
2018-08-19T09:40:25.909Z,54.80
2018-08-19T09:42:53.754Z,56.70
2018-08-19T09:45:21.206Z,56.30
2018-08-19T09:47:48.853Z,50.30
2018-08-19T09:50:16.241Z,50.40
2018-08-19T09:52:43.686Z,54.10
2018-08-19T09:55:11.127Z,51.30
2018-08-19T09:57:44.025Z,51.20
2018-08-19T10:00:12.329Z,51.60
2018-08-19T10:02:45.242Z,53.50
2018-08-19T10:05:17.024Z,52.00
2018-08-19T10:07:44.516Z,52.00
2018-08-19T10:10:12.030Z,51.30
2018-08-19T10:12:39.564Z,53.70
2018-08-19T10:15:07.177Z,53.40
2018-08-19T10:17:34.775Z,51.90
2018-08-19T10:20:06.210Z,50.80
2018-08-19T10:22:40.746Z,50.70
2018-08-19T10:25:14.762Z,51.90
2018-08-19T10:27:42.938Z,49.90
2018-08-19T10:30:10.409Z,50.80
2018-08-19T10:32:37.846Z,49.10
2018-08-19T10:35:10.838Z,49.50
2018-08-19T10:37:38.302Z,49.60
2018-08-19T10:40:06.877Z,48.30
2018-08-19T10:42:34.446Z,48.20
2018-08-19T10:45:02.281Z,50.00
2018-08-19T10:47:30.030Z,47.90
2018-08-19T10:50:04.659Z,50.00
2018-08-19T10:52:32.616Z,47.80
2018-08-19T10:55:01.139Z,48.70
2018-08-19T10:57:28.642Z,49.10
2018-08-19T10:59:57.532Z,46.10
2018-08-19T11:02:25.041Z,45.30
2018-08-19T11:04:55.223Z,48.30
2018-08-19T11:07:22.790Z,45.90
2018-08-19T11:09:56.422Z,45.00
2018-08-19T11:12:23.931Z,45.90
2018-08-19T11:14:51.876Z,44.10
2018-08-19T11:17:19.318Z,47.40
2018-08-19T11:19:48.778Z,46.80
2018-08-19T11:22:16.249Z,48.40
2018-08-19T11:24:43.884Z,47.30
2018-08-19T11:27:11.348Z,45.70
2018-08-19T11:29:39.879Z,46.60
2018-08-19T11:32:07.342Z,46.90
2018-08-19T11:34:34.938Z,47.80
2018-08-19T11:37:02.409Z,47.70
2018-08-19T11:39:35.509Z,47.50
2018-08-19T11:42:02.958Z,46.50
2018-08-19T11:44:33.934Z,46.50
2018-08-19T11:47:01.367Z,46.30
2018-08-19T11:49:28.810Z,47.50
2018-08-19T11:51:58.556Z,48.00
2018-08-19T11:54:28.915Z,45.60
2018-08-19T11:57:02.292Z,49.10
2018-08-19T11:59:34.981Z,46.30
2018-08-19T12:02:02.650Z,46.30
2018-08-19T12:04:30.094Z,46.40
2018-08-19T12:06:57.744Z,45.50
2018-08-19T12:09:25.173Z,46.30
2018-08-19T12:11:52.678Z,48.20
2018-08-19T12:14:20.270Z,49.30
2018-08-19T12:16:53.105Z,47.10
2018-08-19T12:19:37.201Z,49.40
2018-08-19T12:22:05.424Z,52.50
2018-08-19T12:24:38.821Z,50.40
2018-08-19T12:27:07.692Z,49.10
2018-08-19T12:29:36.098Z,48.60
2018-08-19T12:32:09.488Z,49.80
2018-08-19T12:34:38.169Z,49.20
2018-08-19T12:37:06.471Z,53.30
2018-08-19T12:39:34.054Z,52.20
2018-08-19T12:42:02.070Z,50.50
2018-08-19T12:44:29.689Z,50.40
2018-08-19T12:47:05.398Z,49.90
2018-08-19T12:49:33.258Z,51.10
2018-08-19T12:52:00.980Z,52.30
2018-08-19T12:54:28.427Z,49.50
2018-08-19T12:56:56.003Z,51.40
2018-08-19T12:59:23.444Z,49.80
2018-08-19T13:01:51.267Z,49.30
2018-08-19T13:04:18.872Z,50.00
2018-08-19T13:06:56.560Z,50.40
2018-08-19T13:09:27.385Z,50.00
2018-08-19T13:11:54.888Z,50.10
2018-08-19T13:14:23.593Z,50.60
2018-08-19T13:16:52.225Z,53.00
2018-08-19T13:19:21.150Z,51.00
2018-08-19T13:21:48.609Z,50.60
2018-08-19T13:24:19.478Z,51.30
2018-08-19T13:26:47.134Z,52.00
2018-08-19T13:29:14.572Z,51.00
2018-08-19T13:31:42.209Z,50.90
2018-08-19T13:34:09.665Z,52.10
2018-08-19T13:36:37.136Z,51.40
2018-08-19T13:39:05.937Z,52.40
2018-08-19T13:41:33.377Z,52.50
2018-08-19T13:44:00.837Z,51.30
2018-08-19T13:46:28.290Z,50.40
2018-08-19T13:48:55.786Z,49.10
2018-08-19T13:51:23.446Z,50.20
2018-08-19T13:53:50.986Z,51.10
2018-08-19T13:56:18.441Z,49.40
2018-08-19T13:58:48.070Z,48.80
2018-08-19T14:01:15.508Z,49.20
2018-08-19T14:03:42.947Z,50.50
2018-08-19T14:06:10.418Z,50.20
2018-08-19T14:08:37.988Z,49.00
2018-08-19T14:11:06.547Z,50.90
2018-08-19T14:13:33.987Z,48.60
2018-08-19T14:16:01.466Z,49.40
2018-08-19T14:18:29.029Z,50.90
2018-08-19T14:20:56.501Z,48.10
2018-08-19T14:23:23.978Z,50.20
2018-08-19T14:25:51.618Z,48.80
2018-08-19T14:28:19.062Z,48.40
2018-08-19T14:30:46.581Z,47.60
2018-08-19T14:33:14.002Z,47.20
2018-08-19T14:35:41.474Z,48.60
2018-08-19T14:38:08.931Z,46.70
2018-08-19T14:40:36.558Z,47.60
2018-08-19T14:43:04.047Z,48.60
2018-08-19T14:45:31.850Z,50.30
2018-08-19T14:47:59.305Z,49.50
2018-08-19T14:50:26.794Z,49.00
2018-08-19T14:52:54.241Z,46.70
2018-08-19T14:55:21.712Z,50.40
2018-08-19T14:57:49.153Z,47.20
2018-08-19T15:00:17.365Z,47.20
2018-08-19T15:02:44.817Z,46.60
2018-08-19T15:05:14.009Z,47.20
2018-08-19T15:07:41.499Z,47.90
2018-08-19T15:10:09.034Z,44.20
2018-08-19T15:12:36.458Z,44.40
2018-08-19T15:15:04.010Z,45.70
2018-08-19T15:17:31.492Z,47.70
2018-08-19T15:19:59.006Z,46.30
2018-08-19T15:22:26.408Z,43.20
2018-08-19T15:24:53.901Z,43.90
2018-08-19T15:27:21.349Z,43.30
2018-08-19T15:29:50.241Z,43.00
2018-08-19T15:32:18.574Z,46.70
2018-08-19T15:34:45.843Z,43.60
2018-08-19T15:37:13.285Z,43.10
2018-08-19T15:39:40.714Z,42.60
2018-08-19T15:42:08.165Z,44.90
2018-08-19T15:44:35.744Z,46.40
2018-08-19T15:47:03.249Z,41.90
2018-08-19T15:49:30.761Z,43.10
2018-08-19T15:51:58.201Z,42.60
2018-08-19T15:54:25.637Z,43.10
2018-08-19T15:56:53.094Z,41.60
2018-08-19T15:59:20.538Z,41.20
2018-08-19T16:01:47.989Z,40.50
2018-08-19T16:04:19.685Z,40.50
2018-08-19T16:06:48.357Z,42.10
2018-08-19T16:09:17.225Z,40.60
2018-08-19T16:11:45.205Z,40.80
2018-08-19T16:14:18.731Z,41.30
2018-08-19T16:16:46.469Z,40.80
2018-08-19T16:19:13.913Z,41.70
2018-08-19T16:21:41.474Z,41.70
2018-08-19T16:24:09.354Z,42.10
2018-08-19T16:26:37.126Z,42.40
2018-08-19T16:29:04.656Z,41.10
2018-08-19T16:31:32.108Z,43.50
2018-08-19T16:33:59.742Z,43.40
2018-08-19T16:36:27.161Z,42.90
2018-08-19T16:38:55.318Z,43.40
2018-08-19T16:41:22.865Z,44.10
2018-08-19T16:43:50.426Z,43.80
2018-08-19T16:46:17.870Z,42.60
2018-08-19T16:48:45.310Z,43.20
2018-08-19T16:51:12.858Z,42.60
2018-08-19T16:53:40.296Z,42.90
2018-08-19T16:56:07.762Z,44.10
2018-08-19T16:58:35.197Z,43.00
2018-08-19T17:01:02.713Z,43.70
2018-08-19T17:03:31.942Z,44.50
2018-08-19T17:05:59.389Z,45.10
2018-08-19T17:08:26.850Z,45.30
2018-08-19T17:10:54.304Z,45.80
2018-08-19T17:13:21.746Z,44.60
2018-08-19T17:15:49.209Z,45.30
2018-08-19T17:18:16.749Z,44.10
2018-08-19T17:29:51.026Z,46.20
2018-08-19T17:32:19.606Z,45.20
2018-08-19T17:34:47.165Z,46.70
2018-08-19T17:37:16.713Z,51.10
2018-08-19T17:39:45.395Z,49.10
2018-08-19T17:42:12.806Z,48.00
2018-08-19T17:44:40.714Z,48.50
2018-08-19T17:47:08.247Z,50.90
2018-08-19T17:49:35.797Z,51.10
2018-08-19T17:52:03.446Z,51.50
2018-08-19T17:54:32.001Z,51.50
2018-08-19T17:57:00.781Z,52.00
2018-08-19T17:59:28.490Z,51.30
2018-08-19T18:01:55.998Z,51.40
2018-08-19T18:04:26.638Z,52.30
2018-08-19T18:06:54.197Z,51.00
2018-08-19T18:09:21.661Z,53.00
2018-08-19T18:11:54.626Z,53.00
2018-08-19T18:14:22.082Z,51.50
2018-08-19T18:16:49.539Z,53.20
2018-08-19T18:19:16.981Z,53.80
2018-08-19T18:21:44.474Z,54.70
2018-08-19T18:24:12.129Z,54.50
2018-08-19T18:26:39.653Z,54.70
2018-08-19T18:29:07.120Z,53.30
2018-08-19T18:31:34.605Z,54.40
2018-08-19T18:34:02.499Z,54.30
2018-08-19T18:36:31.548Z,54.70
2018-08-19T18:38:59.329Z,55.10
2018-08-19T18:41:33.279Z,55.50
2018-08-19T18:44:06.129Z,55.00
2018-08-19T18:46:34.125Z,54.80
2018-08-19T18:49:07.798Z,55.10
2018-08-19T18:51:35.299Z,55.40
2018-08-19T18:54:02.751Z,55.30
2018-08-19T18:56:30.206Z,55.70
2018-08-19T18:59:01.350Z,55.90
2018-08-19T19:01:29.958Z,56.50
2018-08-19T19:03:57.637Z,56.70
2018-08-19T19:06:25.268Z,57.50
2018-08-19T19:08:52.824Z,57.00
2018-08-19T19:11:21.348Z,57.40
2018-08-19T19:13:48.970Z,57.80
2018-08-19T19:16:18.302Z,58.40
2018-08-19T19:18:45.749Z,58.90
2018-08-19T19:21:13.215Z,59.90
2018-08-19T19:23:42.700Z,60.40
2018-08-19T19:26:10.514Z,61.20
2018-08-19T19:28:37.999Z,60.80
2018-08-19T19:31:11.183Z,60.70
2018-08-19T19:33:38.649Z,61.10
2018-08-19T19:36:11.822Z,61.80
2018-08-19T19:38:45.673Z,62.20
2018-08-19T19:41:13.239Z,62.70
2018-08-19T19:43:42.982Z,62.80
2018-08-19T19:46:10.458Z,63.20
2018-08-19T19:48:37.906Z,63.70
2018-08-19T19:51:05.534Z,64.40
2018-08-19T19:53:34.207Z,64.70
2018-08-19T19:56:07.059Z,65.20
2018-08-19T19:58:34.536Z,65.50
2018-08-19T20:01:02.578Z,65.30
2018-08-19T20:03:30.597Z,65.30
2018-08-19T20:05:58.049Z,65.80
2018-08-19T20:08:26.485Z,66.30
2018-08-19T20:10:53.925Z,66.60
2018-08-19T20:13:21.389Z,67.30
2018-08-19T20:15:48.998Z,67.90
2018-08-19T20:18:16.454Z,67.10
2018-08-19T20:20:43.912Z,67.10
2018-08-19T20:23:16.914Z,67.30
2018-08-19T20:25:44.849Z,67.20
2018-08-19T20:28:12.329Z,67.70
2018-08-19T20:30:40.225Z,67.60
2018-08-19T20:33:14.127Z,68.00
2018-08-19T20:35:41.561Z,68.30
2018-08-19T20:38:09.042Z,68.90
2018-08-19T20:40:36.701Z,68.70
2018-08-19T20:43:20.993Z,69.20
2018-08-19T20:45:48.437Z,69.10
2018-08-19T20:48:18.549Z,69.20
2018-08-19T20:50:46.621Z,70.80
2018-08-19T20:53:14.122Z,70.70
2018-08-19T20:55:41.665Z,70.80
2018-08-19T20:58:09.182Z,71.00
2018-08-19T21:00:37.060Z,71.00
2018-08-19T21:03:04.706Z,71.30
2018-08-19T21:05:32.204Z,71.90
2018-08-19T21:08:04.799Z,71.80
2018-08-19T21:10:32.269Z,72.30
2018-08-19T21:12:59.753Z,72.20
2018-08-19T21:15:33.973Z,72.30
2018-08-19T21:18:01.497Z,72.20
2018-08-19T21:20:28.970Z,72.40
2018-08-19T21:22:56.424Z,72.10
2018-08-19T21:25:24.325Z,73.40
2018-08-19T21:27:52.985Z,74.20
2018-08-19T21:30:21.585Z,74.60
2018-08-19T21:32:49.029Z,73.90
2018-08-19T21:35:16.605Z,73.80
2018-08-19T21:37:45.611Z,74.00
2018-08-19T21:40:13.078Z,75.50
2018-08-19T21:42:47.264Z,75.50
2018-08-19T21:45:14.730Z,75.70
2018-08-19T21:47:43.417Z,76.00
2018-08-19T21:50:10.968Z,75.70
2018-08-19T21:52:46.426Z,75.90
2018-08-19T21:55:13.956Z,76.30
2018-08-19T21:57:41.460Z,76.50
2018-08-19T22:00:08.980Z,76.30
2018-08-19T22:02:43.144Z,76.90
2018-08-19T22:05:10.593Z,77.30
2018-08-19T22:07:38.055Z,76.50
2018-08-19T22:10:05.625Z,76.70
2018-08-19T22:12:34.230Z,76.20
2018-08-19T22:15:01.714Z,77.00
2018-08-19T22:17:29.184Z,77.30
2018-08-19T22:19:56.716Z,78.00
2018-08-19T22:22:24.137Z,78.70
2018-08-19T22:24:51.598Z,78.80
2018-08-19T22:27:19.169Z,78.80
2018-08-19T22:29:46.613Z,78.70
2018-08-19T22:34:48.071Z,78.20
2018-08-19T22:37:15.662Z,77.80
2018-08-19T22:39:43.153Z,78.00
2018-08-19T22:42:10.618Z,77.70
2018-08-19T22:44:38.057Z,78.20
2018-08-19T22:47:05.527Z,79.70
2018-08-19T22:49:33.027Z,80.20
2018-08-19T22:52:06.062Z,80.60
2018-08-19T22:54:33.506Z,79.70
2018-08-19T22:57:01.001Z,80.40
2018-08-19T22:59:28.437Z,79.80
2018-08-19T23:01:55.888Z,81.70
2018-08-19T23:04:23.401Z,81.60
2018-08-19T23:06:50.874Z,81.90
2018-08-19T23:09:18.333Z,82.70
2018-08-19T23:11:47.387Z,83.50
2018-08-19T23:14:20.564Z,82.70
2018-08-19T23:16:48.048Z,83.40
2018-08-19T23:19:17.922Z,84.30
2018-08-19T23:21:45.372Z,84.60
2018-08-19T23:24:12.823Z,85.40
2018-08-19T23:26:40.281Z,86.20
2018-08-19T23:29:07.770Z,86.20
2018-08-19T23:31:35.219Z,87.10
2018-08-19T23:34:02.733Z,86.10
2018-08-19T23:36:30.181Z,86.70
2018-08-19T23:38:57.681Z,87.20
2018-08-19T23:41:26.289Z,88.30
2018-08-19T23:43:53.746Z,88.50
2018-08-19T23:46:21.201Z,88.30
2018-08-19T23:48:48.979Z,88.70
2018-08-19T23:51:24.888Z,88.80
2018-08-19T23:53:52.361Z,88.80
2018-08-19T23:56:19.825Z,89.10
2018-08-19T23:58:47.368Z,90.00
